sensor_id;sensor_type;location;lat;lon;timestamp;temperature;humidity
54192;DHT22;40101;53.002;6.488;2024-01-15T00:00:53;1.20;99.90
54192;DHT22;40101;53.002;6.488;2024-01-15T00:03:19;1.20;99.90
54192;DHT22;40101;53.002;6.488;2024-01-15T00:05:51;1.30;99.90
54192;DHT22;40101;53.002;6.488;2024-01-15T00:09:18;1.20;99.90
54192;DHT22;40101;53.002;6.488;2024-01-15T00:18:23;1.20;99.90
54192;DHT22;40101;53.002;6.488;2024-01-15T00:20:48;1.30;99.90
54192;DHT22;40101;53.002;6.488;2024-01-15T00:23:22;1.40;99.90
54192;DHT22;40101;53.002;6.488;2024-01-15T00:25:47;1.60;99.90
54192;DHT22;40101;53.002;6.488;2024-01-15T00:28:13;1.50;99.90
54192;DHT22;40101;53.002;6.488;2024-01-15T00:30:39;1.60;99.90
54192;DHT22;40101;53.002;6.488;2024-01-15T00:33:07;1.60;99.90
54192;DHT22;40101;53.002;6.488;2024-01-15T00:35:33;1.60;99.90
54192;DHT22;40101;53.002;6.488;2024-01-15T00:37:58;1.70;99.90
54192;DHT22;40101;53.002;6.488;2024-01-15T00:40:24;1.80;99.90
54192;DHT22;40101;53.002;6.488;2024-01-15T00:42:51;1.80;99.90
54192;DHT22;40101;53.002;6.488;2024-01-15T00:45:16;1.80;99.90
54192;DHT22;40101;53.002;6.488;2024-01-15T00:47:42;1.80;99.90
54192;DHT22;40101;53.002;6.488;2024-01-15T00:50:08;1.80;99.90
54192;DHT22;40101;53.002;6.488;2024-01-15T00:52:37;1.80;99.90
54192;DHT22;40101;53.002;6.488;2024-01-15T00:55:03;1.90;99.90
54192;DHT22;40101;53.002;6.488;2024-01-15T00:57:28;1.90;99.90
54192;DHT22;40101;53.002;6.488;2024-01-15T00:59:59;1.90;99.90
54192;DHT22;40101;53.002;6.488;2024-01-15T01:02:26;1.90;99.90
54192;DHT22;40101;53.002;6.488;2024-01-15T01:04:52;2.00;99.90
54192;DHT22;40101;53.002;6.488;2024-01-15T01:07:22;2.00;99.90
54192;DHT22;40101;53.002;6.488;2024-01-15T01:09:51;2.00;99.90
54192;DHT22;40101;53.002;6.488;2024-01-15T01:12:17;2.10;99.90
54192;DHT22;40101;53.002;6.488;2024-01-15T01:14:43;2.30;99.90
54192;DHT22;40101;53.002;6.488;2024-01-15T01:17:08;2.10;99.90
54192;DHT22;40101;53.002;6.488;2024-01-15T01:19:34;2.30;99.90
54192;DHT22;40101;53.002;6.488;2024-01-15T01:21:59;2.10;99.90
54192;DHT22;40101;53.002;6.488;2024-01-15T01:24:25;2.10;99.90
54192;DHT22;40101;53.002;6.488;2024-01-15T01:26:54;2.10;99.90
54192;DHT22;40101;53.002;6.488;2024-01-15T01:29:19;2.00;99.90
54192;DHT22;40101;53.002;6.488;2024-01-15T01:31:45;2.00;99.90
54192;DHT22;40101;53.002;6.488;2024-01-15T01:34:14;2.00;99.90
54192;DHT22;40101;53.002;6.488;2024-01-15T01:36:39;2.40;99.90
54192;DHT22;40101;53.002;6.488;2024-01-15T01:39:05;2.00;99.90
54192;DHT22;40101;53.002;6.488;2024-01-15T01:41:31;2.20;99.90
54192;DHT22;40101;53.002;6.488;2024-01-15T01:43:57;2.00;99.90
54192;DHT22;40101;53.002;6.488;2024-01-15T01:46:23;2.00;99.90
54192;DHT22;40101;53.002;6.488;2024-01-15T01:48:52;2.00;99.90
54192;DHT22;40101;53.002;6.488;2024-01-15T01:51:18;1.90;99.90
54192;DHT22;40101;53.002;6.488;2024-01-15T01:53:45;2.10;99.90
54192;DHT22;40101;53.002;6.488;2024-01-15T01:56:12;2.20;99.90
54192;DHT22;40101;53.002;6.488;2024-01-15T01:58:38;1.80;99.90
54192;DHT22;40101;53.002;6.488;2024-01-15T02:01:05;1.80;99.90
54192;DHT22;40101;53.002;6.488;2024-01-15T02:03:31;1.80;99.90
54192;DHT22;40101;53.002;6.488;2024-01-15T02:05:57;1.70;99.90
54192;DHT22;40101;53.002;6.488;2024-01-15T02:08:24;1.70;99.90
54192;DHT22;40101;53.002;6.488;2024-01-15T02:10:50;1.60;99.90
54192;DHT22;40101;53.002;6.488;2024-01-15T02:13:17;1.50;99.90
54192;DHT22;40101;53.002;6.488;2024-01-15T02:15:43;1.40;99.90
54192;DHT22;40101;53.002;6.488;2024-01-15T02:18:09;1.40;99.90
54192;DHT22;40101;53.002;6.488;2024-01-15T02:20:35;1.40;99.90
54192;DHT22;40101;53.002;6.488;2024-01-15T02:23:14;1.30;99.90
54192;DHT22;40101;53.002;6.488;2024-01-15T02:25:41;1.50;99.90
54192;DHT22;40101;53.002;6.488;2024-01-15T02:28:09;1.30;99.90
54192;DHT22;40101;53.002;6.488;2024-01-15T02:30:37;1.30;99.90
54192;DHT22;40101;53.002;6.488;2024-01-15T02:33:07;1.30;99.90
54192;DHT22;40101;53.002;6.488;2024-01-15T02:35:33;1.40;99.90
54192;DHT22;40101;53.002;6.488;2024-01-15T02:37:59;1.40;99.90
54192;DHT22;40101;53.002;6.488;2024-01-15T02:40:25;1.70;99.90
54192;DHT22;40101;53.002;6.488;2024-01-15T02:42:50;1.50;99.90
54192;DHT22;40101;53.002;6.488;2024-01-15T02:45:17;1.60;99.90
54192;DHT22;40101;53.002;6.488;2024-01-15T02:47:42;1.60;99.90
54192;DHT22;40101;53.002;6.488;2024-01-15T02:50:08;1.60;99.90
54192;DHT22;40101;53.002;6.488;2024-01-15T02:52:34;1.70;99.90
54192;DHT22;40101;53.002;6.488;2024-01-15T02:55:00;1.90;99.90
54192;DHT22;40101;53.002;6.488;2024-01-15T02:57:25;1.70;99.90
54192;DHT22;40101;53.002;6.488;2024-01-15T02:59:51;1.60;99.90
54192;DHT22;40101;53.002;6.488;2024-01-15T03:02:16;1.60;99.90
54192;DHT22;40101;53.002;6.488;2024-01-15T03:04:45;1.60;99.90
54192;DHT22;40101;53.002;6.488;2024-01-15T03:07:11;1.50;99.90
54192;DHT22;40101;53.002;6.488;2024-01-15T03:09:40;2.10;99.90
54192;DHT22;40101;53.002;6.488;2024-01-15T03:12:09;1.70;99.90
54192;DHT22;40101;53.002;6.488;2024-01-15T03:14:35;1.50;99.90
54192;DHT22;40101;53.002;6.488;2024-01-15T03:17:01;1.40;99.90
54192;DHT22;40101;53.002;6.488;2024-01-15T03:19:27;1.50;99.90
54192;DHT22;40101;53.002;6.488;2024-01-15T03:21:52;1.40;99.90
54192;DHT22;40101;53.002;6.488;2024-01-15T03:24:18;1.40;99.90
54192;DHT22;40101;53.002;6.488;2024-01-15T03:26:44;1.40;99.90
54192;DHT22;40101;53.002;6.488;2024-01-15T03:29:10;1.40;99.90
54192;DHT22;40101;53.002;6.488;2024-01-15T03:31:35;1.40;99.90
54192;DHT22;40101;53.002;6.488;2024-01-15T03:34:01;1.50;99.90
54192;DHT22;40101;53.002;6.488;2024-01-15T03:36:26;1.50;99.90
54192;DHT22;40101;53.002;6.488;2024-01-15T03:38:52;1.60;99.90
54192;DHT22;40101;53.002;6.488;2024-01-15T03:41:18;1.90;99.90
54192;DHT22;40101;53.002;6.488;2024-01-15T03:43:43;1.70;99.90
54192;DHT22;40101;53.002;6.488;2024-01-15T03:46:09;1.70;99.90
54192;DHT22;40101;53.002;6.488;2024-01-15T03:48:35;1.80;99.90
54192;DHT22;40101;53.002;6.488;2024-01-15T03:51:00;1.80;99.90
54192;DHT22;40101;53.002;6.488;2024-01-15T03:53:26;1.80;99.90
54192;DHT22;40101;53.002;6.488;2024-01-15T03:55:55;1.80;99.90
54192;DHT22;40101;53.002;6.488;2024-01-15T03:58:21;1.70;99.90
54192;DHT22;40101;53.002;6.488;2024-01-15T04:00:46;1.70;99.90
54192;DHT22;40101;53.002;6.488;2024-01-15T04:03:12;1.80;99.90
54192;DHT22;40101;53.002;6.488;2024-01-15T04:05:38;1.80;99.90
54192;DHT22;40101;53.002;6.488;2024-01-15T04:08:04;1.80;99.90
54192;DHT22;40101;53.002;6.488;2024-01-15T04:10:30;1.90;99.90
54192;DHT22;40101;53.002;6.488;2024-01-15T04:12:55;1.90;99.90
54192;DHT22;40101;53.002;6.488;2024-01-15T04:15:21;2.00;99.90
54192;DHT22;40101;53.002;6.488;2024-01-15T04:18:03;1.90;99.90
54192;DHT22;40101;53.002;6.488;2024-01-15T04:20:29;2.00;99.90
54192;DHT22;40101;53.002;6.488;2024-01-15T04:22:55;1.90;99.90
54192;DHT22;40101;53.002;6.488;2024-01-15T04:25:20;1.90;99.90
54192;DHT22;40101;53.002;6.488;2024-01-15T04:27:46;1.90;99.90
54192;DHT22;40101;53.002;6.488;2024-01-15T04:30:12;1.90;99.90
54192;DHT22;40101;53.002;6.488;2024-01-15T04:32:40;1.90;99.90
54192;DHT22;40101;53.002;6.488;2024-01-15T04:35:06;1.90;99.90
54192;DHT22;40101;53.002;6.488;2024-01-15T04:37:31;1.90;99.90
54192;DHT22;40101;53.002;6.488;2024-01-15T04:39:57;2.00;99.90
54192;DHT22;40101;53.002;6.488;2024-01-15T04:42:25;1.90;99.90
54192;DHT22;40101;53.002;6.488;2024-01-15T04:44:51;1.80;99.90
54192;DHT22;40101;53.002;6.488;2024-01-15T04:47:17;1.70;99.90
54192;DHT22;40101;53.002;6.488;2024-01-15T04:49:43;1.70;99.90
54192;DHT22;40101;53.002;6.488;2024-01-15T04:52:08;1.50;99.90
54192;DHT22;40101;53.002;6.488;2024-01-15T04:54:36;1.60;99.90
54192;DHT22;40101;53.002;6.488;2024-01-15T04:57:02;1.50;99.90
54192;DHT22;40101;53.002;6.488;2024-01-15T04:59:28;1.50;99.90
54192;DHT22;40101;53.002;6.488;2024-01-15T05:02:02;1.40;99.90
54192;DHT22;40101;53.002;6.488;2024-01-15T05:04:31;1.40;99.90
54192;DHT22;40101;53.002;6.488;2024-01-15T05:06:58;1.30;99.90
54192;DHT22;40101;53.002;6.488;2024-01-15T05:09:24;1.30;99.90
54192;DHT22;40101;53.002;6.488;2024-01-15T05:11:49;1.20;99.90
54192;DHT22;40101;53.002;6.488;2024-01-15T05:14:15;1.40;99.90
54192;DHT22;40101;53.002;6.488;2024-01-15T05:16:47;1.40;99.90
54192;DHT22;40101;53.002;6.488;2024-01-15T05:19:13;1.10;99.90
54192;DHT22;40101;53.002;6.488;2024-01-15T05:21:39;1.10;99.90
54192;DHT22;40101;53.002;6.488;2024-01-15T05:24:05;1.10;99.90
54192;DHT22;40101;53.002;6.488;2024-01-15T05:26:30;1.10;99.90
54192;DHT22;40101;53.002;6.488;2024-01-15T05:28:56;1.20;99.90
54192;DHT22;40101;53.002;6.488;2024-01-15T05:31:22;1.20;99.90
54192;DHT22;40101;53.002;6.488;2024-01-15T05:33:47;1.30;99.90
54192;DHT22;40101;53.002;6.488;2024-01-15T05:36:13;1.40;99.90
54192;DHT22;40101;53.002;6.488;2024-01-15T05:38:39;1.40;99.90
54192;DHT22;40101;53.002;6.488;2024-01-15T05:41:05;1.50;99.90
54192;DHT22;40101;53.002;6.488;2024-01-15T05:43:31;1.50;99.90
54192;DHT22;40101;53.002;6.488;2024-01-15T05:45:57;1.70;99.90
54192;DHT22;40101;53.002;6.488;2024-01-15T05:48:22;1.40;99.90
54192;DHT22;40101;53.002;6.488;2024-01-15T05:50:48;1.50;99.90
54192;DHT22;40101;53.002;6.488;2024-01-15T05:53:14;1.30;99.90
54192;DHT22;40101;53.002;6.488;2024-01-15T05:55:40;1.20;99.90
54192;DHT22;40101;53.002;6.488;2024-01-15T05:58:05;1.40;99.90
54192;DHT22;40101;53.002;6.488;2024-01-15T06:00:31;1.10;99.90
54192;DHT22;40101;53.002;6.488;2024-01-15T06:02:58;1.10;99.90
54192;DHT22;40101;53.002;6.488;2024-01-15T06:05:24;1.00;99.90
54192;DHT22;40101;53.002;6.488;2024-01-15T06:07:50;1.00;99.90
54192;DHT22;40101;53.002;6.488;2024-01-15T06:10:18;1.00;99.90
54192;DHT22;40101;53.002;6.488;2024-01-15T06:12:47;1.20;99.90
54192;DHT22;40101;53.002;6.488;2024-01-15T06:15:12;1.00;99.90
54192;DHT22;40101;53.002;6.488;2024-01-15T06:17:38;1.20;99.90
54192;DHT22;40101;53.002;6.488;2024-01-15T06:20:04;1.10;99.90
54192;DHT22;40101;53.002;6.488;2024-01-15T06:22:31;1.20;99.90
54192;DHT22;40101;53.002;6.488;2024-01-15T06:24:57;1.40;99.90
54192;DHT22;40101;53.002;6.488;2024-01-15T06:27:23;1.20;99.90
54192;DHT22;40101;53.002;6.488;2024-01-15T06:29:48;1.10;99.90
54192;DHT22;40101;53.002;6.488;2024-01-15T06:32:14;1.10;99.90
54192;DHT22;40101;53.002;6.488;2024-01-15T06:34:40;1.10;99.90
54192;DHT22;40101;53.002;6.488;2024-01-15T06:37:06;1.10;99.90
54192;DHT22;40101;53.002;6.488;2024-01-15T06:39:31;1.10;99.90
54192;DHT22;40101;53.002;6.488;2024-01-15T06:41:57;1.00;99.90
54192;DHT22;40101;53.002;6.488;2024-01-15T06:44:23;1.10;99.90
54192;DHT22;40101;53.002;6.488;2024-01-15T06:46:49;1.10;99.90
54192;DHT22;40101;53.002;6.488;2024-01-15T06:49:15;1.40;99.90
54192;DHT22;40101;53.002;6.488;2024-01-15T06:51:43;1.10;99.90
54192;DHT22;40101;53.002;6.488;2024-01-15T06:54:09;1.30;99.90
54192;DHT22;40101;53.002;6.488;2024-01-15T06:56:35;1.40;99.90
54192;DHT22;40101;53.002;6.488;2024-01-15T06:59:01;1.10;99.90
54192;DHT22;40101;53.002;6.488;2024-01-15T07:01:26;1.00;99.90
54192;DHT22;40101;53.002;6.488;2024-01-15T07:03:52;1.00;99.90
54192;DHT22;40101;53.002;6.488;2024-01-15T07:06:18;1.00;99.90
54192;DHT22;40101;53.002;6.488;2024-01-15T07:08:44;1.00;99.90
54192;DHT22;40101;53.002;6.488;2024-01-15T07:11:10;1.00;99.90
54192;DHT22;40101;53.002;6.488;2024-01-15T07:13:36;1.00;99.90
54192;DHT22;40101;53.002;6.488;2024-01-15T07:16:03;0.90;99.90
54192;DHT22;40101;53.002;6.488;2024-01-15T07:18:39;0.90;99.90
54192;DHT22;40101;53.002;6.488;2024-01-15T07:21:04;0.90;99.90
54192;DHT22;40101;53.002;6.488;2024-01-15T07:23:31;1.70;99.90
54192;DHT22;40101;53.002;6.488;2024-01-15T07:25:57;0.90;99.90
54192;DHT22;40101;53.002;6.488;2024-01-15T07:28:23;1.30;99.90
54192;DHT22;40101;53.002;6.488;2024-01-15T07:30:48;0.90;99.90
54192;DHT22;40101;53.002;6.488;2024-01-15T07:33:14;0.80;99.90
54192;DHT22;40101;53.002;6.488;2024-01-15T07:35:40;0.80;99.90
54192;DHT22;40101;53.002;6.488;2024-01-15T07:38:05;0.80;99.90
54192;DHT22;40101;53.002;6.488;2024-01-15T07:40:31;0.80;99.90
54192;DHT22;40101;53.002;6.488;2024-01-15T07:42:56;0.80;99.90
54192;DHT22;40101;53.002;6.488;2024-01-15T07:45:22;1.20;99.90
54192;DHT22;40101;53.002;6.488;2024-01-15T07:47:48;0.50;99.90
54192;DHT22;40101;53.002;6.488;2024-01-15T07:50:17;0.80;99.90
54192;DHT22;40101;53.002;6.488;2024-01-15T07:52:52;0.90;99.90
54192;DHT22;40101;53.002;6.488;2024-01-15T07:55:18;1.00;99.90
54192;DHT22;40101;53.002;6.488;2024-01-15T07:57:44;1.00;99.90
54192;DHT22;40101;53.002;6.488;2024-01-15T08:00:10;1.30;99.90
54192;DHT22;40101;53.002;6.488;2024-01-15T08:02:36;1.10;99.90
54192;DHT22;40101;53.002;6.488;2024-01-15T08:05:01;1.10;99.90
54192;DHT22;40101;53.002;6.488;2024-01-15T08:07:27;1.10;99.90
54192;DHT22;40101;53.002;6.488;2024-01-15T08:09:53;1.60;99.90
54192;DHT22;40101;53.002;6.488;2024-01-15T08:12:19;1.20;99.90
54192;DHT22;40101;53.002;6.488;2024-01-15T08:14:44;1.20;99.90
54192;DHT22;40101;53.002;6.488;2024-01-15T08:17:11;1.20;99.90
54192;DHT22;40101;53.002;6.488;2024-01-15T08:19:36;1.20;99.90
54192;DHT22;40101;53.002;6.488;2024-01-15T08:22:02;1.60;99.90
54192;DHT22;40101;53.002;6.488;2024-01-15T08:24:28;1.30;99.90
54192;DHT22;40101;53.002;6.488;2024-01-15T08:26:54;1.60;99.90
54192;DHT22;40101;53.002;6.488;2024-01-15T08:29:21;1.70;99.90
54192;DHT22;40101;53.002;6.488;2024-01-15T08:31:47;2.60;99.90
54192;DHT22;40101;53.002;6.488;2024-01-15T08:34:13;3.60;99.90
54192;DHT22;40101;53.002;6.488;2024-01-15T08:36:41;3.70;99.90
54192;DHT22;40101;53.002;6.488;2024-01-15T08:39:07;4.40;99.90
54192;DHT22;40101;53.002;6.488;2024-01-15T08:41:34;5.10;99.90
54192;DHT22;40101;53.002;6.488;2024-01-15T08:44:02;5.20;99.90
54192;DHT22;40101;53.002;6.488;2024-01-15T08:46:30;5.40;99.90
54192;DHT22;40101;53.002;6.488;2024-01-15T08:48:56;5.70;99.90
54192;DHT22;40101;53.002;6.488;2024-01-15T08:51:31;6.10;99.90
54192;DHT22;40101;53.002;6.488;2024-01-15T08:53:57;6.40;99.90
54192;DHT22;40101;53.002;6.488;2024-01-15T08:56:25;6.70;99.90
54192;DHT22;40101;53.002;6.488;2024-01-15T08:58:52;7.00;99.90
54192;DHT22;40101;53.002;6.488;2024-01-15T09:01:18;6.90;99.90
54192;DHT22;40101;53.002;6.488;2024-01-15T09:03:44;6.80;99.90
54192;DHT22;40101;53.002;6.488;2024-01-15T09:06:10;6.20;99.90
54192;DHT22;40101;53.002;6.488;2024-01-15T09:08:36;5.80;99.90
54192;DHT22;40101;53.002;6.488;2024-01-15T09:11:02;5.00;99.90
54192;DHT22;40101;53.002;6.488;2024-01-15T09:13:29;4.50;99.90
54192;DHT22;40101;53.002;6.488;2024-01-15T09:15:54;4.10;99.90
54192;DHT22;40101;53.002;6.488;2024-01-15T09:18:20;3.70;99.90
54192;DHT22;40101;53.002;6.488;2024-01-15T09:20:46;3.40;99.90
54192;DHT22;40101;53.002;6.488;2024-01-15T09:23:11;3.40;99.90
54192;DHT22;40101;53.002;6.488;2024-01-15T09:25:37;4.10;99.90
54192;DHT22;40101;53.002;6.488;2024-01-15T09:28:03;4.50;99.90
54192;DHT22;40101;53.002;6.488;2024-01-15T09:30:29;5.20;99.90
54192;DHT22;40101;53.002;6.488;2024-01-15T09:32:55;5.70;99.90
54192;DHT22;40101;53.002;6.488;2024-01-15T09:35:20;6.10;99.90
54192;DHT22;40101;53.002;6.488;2024-01-15T09:37:46;5.90;99.90
54192;DHT22;40101;53.002;6.488;2024-01-15T09:40:13;6.00;99.90
54192;DHT22;40101;53.002;6.488;2024-01-15T09:42:40;6.20;99.90
54192;DHT22;40101;53.002;6.488;2024-01-15T09:45:09;6.50;99.90
54192;DHT22;40101;53.002;6.488;2024-01-15T09:47:36;6.40;99.90
54192;DHT22;40101;53.002;6.488;2024-01-15T09:50:02;6.60;99.90
54192;DHT22;40101;53.002;6.488;2024-01-15T09:52:30;6.50;99.90
54192;DHT22;40101;53.002;6.488;2024-01-15T09:54:58;6.00;99.90
54192;DHT22;40101;53.002;6.488;2024-01-15T09:57:24;5.40;99.90
54192;DHT22;40101;53.002;6.488;2024-01-15T09:59:52;4.70;99.90
54192;DHT22;40101;53.002;6.488;2024-01-15T10:02:21;4.00;99.90
54192;DHT22;40101;53.002;6.488;2024-01-15T10:04:49;4.00;99.90
54192;DHT22;40101;53.002;6.488;2024-01-15T10:07:15;4.10;99.90
54192;DHT22;40101;53.002;6.488;2024-01-15T10:09:45;3.60;99.90
54192;DHT22;40101;53.002;6.488;2024-01-15T10:12:12;3.60;99.90
54192;DHT22;40101;53.002;6.488;2024-01-15T10:14:37;4.10;99.90
54192;DHT22;40101;53.002;6.488;2024-01-15T10:17:13;4.80;99.90
54192;DHT22;40101;53.002;6.488;2024-01-15T10:19:42;5.40;99.90
54192;DHT22;40101;53.002;6.488;2024-01-15T10:22:09;5.40;99.90
54192;DHT22;40101;53.002;6.488;2024-01-15T10:24:37;4.90;99.90
54192;DHT22;40101;53.002;6.488;2024-01-15T10:27:10;4.60;99.90
54192;DHT22;40101;53.002;6.488;2024-01-15T10:29:36;4.70;99.90
54192;DHT22;40101;53.002;6.488;2024-01-15T10:32:05;4.90;99.90
54192;DHT22;40101;53.002;6.488;2024-01-15T10:34:31;5.00;99.90
54192;DHT22;40101;53.002;6.488;2024-01-15T10:36:57;4.90;99.90
54192;DHT22;40101;53.002;6.488;2024-01-15T10:39:24;4.50;99.90
54192;DHT22;40101;53.002;6.488;2024-01-15T10:41:50;4.20;99.90
54192;DHT22;40101;53.002;6.488;2024-01-15T10:44:19;4.00;99.90
54192;DHT22;40101;53.002;6.488;2024-01-15T10:46:45;3.80;99.90
54192;DHT22;40101;53.002;6.488;2024-01-15T10:49:11;3.60;99.90
54192;DHT22;40101;53.002;6.488;2024-01-15T10:51:38;3.60;99.90
54192;DHT22;40101;53.002;6.488;2024-01-15T10:54:04;3.50;99.90
54192;DHT22;40101;53.002;6.488;2024-01-15T10:56:32;3.40;99.90
54192;DHT22;40101;53.002;6.488;2024-01-15T10:59:00;3.30;99.90
54192;DHT22;40101;53.002;6.488;2024-01-15T11:01:26;3.20;99.90
54192;DHT22;40101;53.002;6.488;2024-01-15T11:03:55;3.10;99.90
54192;DHT22;40101;53.002;6.488;2024-01-15T11:06:24;3.10;99.90
54192;DHT22;40101;53.002;6.488;2024-01-15T11:08:51;3.00;99.90
54192;DHT22;40101;53.002;6.488;2024-01-15T11:11:18;3.00;99.90
54192;DHT22;40101;53.002;6.488;2024-01-15T11:13:46;3.10;99.90
54192;DHT22;40101;53.002;6.488;2024-01-15T11:16:13;3.10;99.90
54192;DHT22;40101;53.002;6.488;2024-01-15T11:21:24;3.00;99.90
54192;DHT22;40101;53.002;6.488;2024-01-15T11:24:01;3.00;99.90
54192;DHT22;40101;53.002;6.488;2024-01-15T11:29:00;3.10;99.90
54192;DHT22;40101;53.002;6.488;2024-01-15T11:34:15;3.10;99.90
54192;DHT22;40101;53.002;6.488;2024-01-15T11:37:01;3.10;99.90
54192;DHT22;40101;53.002;6.488;2024-01-15T11:42:00;3.00;99.90
54192;DHT22;40101;53.002;6.488;2024-01-15T11:44:29;3.00;99.90
54192;DHT22;40101;53.002;6.488;2024-01-15T11:46:59;2.90;99.90
54192;DHT22;40101;53.002;6.488;2024-01-15T11:52:06;3.00;99.90
54192;DHT22;40101;53.002;6.488;2024-01-15T11:54:39;3.00;99.90
54192;DHT22;40101;53.002;6.488;2024-01-15T11:57:12;3.00;99.90
54192;DHT22;40101;53.002;6.488;2024-01-15T11:59:42;2.90;99.90
54192;DHT22;40101;53.002;6.488;2024-01-15T12:02:08;2.80;99.90
54192;DHT22;40101;53.002;6.488;2024-01-15T12:04:37;2.60;99.90
54192;DHT22;40101;53.002;6.488;2024-01-15T12:07:02;2.40;99.90
54192;DHT22;40101;53.002;6.488;2024-01-15T12:09:28;2.30;99.90
54192;DHT22;40101;53.002;6.488;2024-01-15T12:12:00;2.40;99.90
54192;DHT22;40101;53.002;6.488;2024-01-15T12:14:31;2.10;99.90
54192;DHT22;40101;53.002;6.488;2024-01-15T12:16:57;2.10;99.90
54192;DHT22;40101;53.002;6.488;2024-01-15T12:19:23;2.10;99.90
54192;DHT22;40101;53.002;6.488;2024-01-15T12:21:51;2.10;99.90
54192;DHT22;40101;53.002;6.488;2024-01-15T12:24:17;2.10;99.90
54192;DHT22;40101;53.002;6.488;2024-01-15T12:26:43;2.20;99.90
54192;DHT22;40101;53.002;6.488;2024-01-15T12:29:10;2.20;99.90
54192;DHT22;40101;53.002;6.488;2024-01-15T12:31:36;2.20;99.90
54192;DHT22;40101;53.002;6.488;2024-01-15T12:34:02;2.30;99.90
54192;DHT22;40101;53.002;6.488;2024-01-15T12:36:30;2.30;99.90
54192;DHT22;40101;53.002;6.488;2024-01-15T12:38:59;2.40;99.90
54192;DHT22;40101;53.002;6.488;2024-01-15T12:41:25;2.40;99.90
54192;DHT22;40101;53.002;6.488;2024-01-15T12:43:51;2.50;99.90
54192;DHT22;40101;53.002;6.488;2024-01-15T12:46:16;2.60;99.90
54192;DHT22;40101;53.002;6.488;2024-01-15T12:48:42;2.60;99.90
54192;DHT22;40101;53.002;6.488;2024-01-15T12:51:08;2.60;99.90
54192;DHT22;40101;53.002;6.488;2024-01-15T12:53:34;2.70;99.90
54192;DHT22;40101;53.002;6.488;2024-01-15T12:56:00;2.80;99.90
54192;DHT22;40101;53.002;6.488;2024-01-15T12:58:25;2.90;99.90
54192;DHT22;40101;53.002;6.488;2024-01-15T13:00:51;3.10;99.90
54192;DHT22;40101;53.002;6.488;2024-01-15T13:03:17;3.50;99.90
54192;DHT22;40101;53.002;6.488;2024-01-15T13:05:43;3.10;99.90
54192;DHT22;40101;53.002;6.488;2024-01-15T13:08:10;3.00;99.90
54192;DHT22;40101;53.002;6.488;2024-01-15T13:10:36;2.90;99.90
54192;DHT22;40101;53.002;6.488;2024-01-15T13:13:01;2.90;99.90
54192;DHT22;40101;53.002;6.488;2024-01-15T13:15:27;2.90;99.90
54192;DHT22;40101;53.002;6.488;2024-01-15T13:17:53;3.00;99.90
54192;DHT22;40101;53.002;6.488;2024-01-15T13:20:19;3.10;99.90
54192;DHT22;40101;53.002;6.488;2024-01-15T13:22:45;3.20;99.90
54192;DHT22;40101;53.002;6.488;2024-01-15T13:25:11;3.10;99.90
54192;DHT22;40101;53.002;6.488;2024-01-15T13:27:37;2.90;99.90
54192;DHT22;40101;53.002;6.488;2024-01-15T13:30:03;2.70;99.90
54192;DHT22;40101;53.002;6.488;2024-01-15T13:32:29;2.70;99.90
54192;DHT22;40101;53.002;6.488;2024-01-15T13:34:56;2.70;99.90
54192;DHT22;40101;53.002;6.488;2024-01-15T13:37:22;2.80;99.90
54192;DHT22;40101;53.002;6.488;2024-01-15T13:39:50;2.80;99.90
54192;DHT22;40101;53.002;6.488;2024-01-15T13:42:17;3.10;99.90
54192;DHT22;40101;53.002;6.488;2024-01-15T13:44:43;2.70;99.90
54192;DHT22;40101;53.002;6.488;2024-01-15T13:47:08;2.60;99.90
54192;DHT22;40101;53.002;6.488;2024-01-15T13:49:34;2.50;99.90
54192;DHT22;40101;53.002;6.488;2024-01-15T13:52:02;2.40;99.90
54192;DHT22;40101;53.002;6.488;2024-01-15T13:54:29;2.40;99.90
54192;DHT22;40101;53.002;6.488;2024-01-15T13:56:56;2.40;99.90
54192;DHT22;40101;53.002;6.488;2024-01-15T13:59:22;2.50;99.90
54192;DHT22;40101;53.002;6.488;2024-01-15T14:01:48;2.60;99.90
54192;DHT22;40101;53.002;6.488;2024-01-15T14:04:13;2.60;99.90
54192;DHT22;40101;53.002;6.488;2024-01-15T14:06:39;2.60;99.90
54192;DHT22;40101;53.002;6.488;2024-01-15T14:09:05;2.60;99.90
54192;DHT22;40101;53.002;6.488;2024-01-15T14:11:31;2.90;99.90
54192;DHT22;40101;53.002;6.488;2024-01-15T14:13:57;2.90;99.90
54192;DHT22;40101;53.002;6.488;2024-01-15T14:16:22;2.60;99.90
54192;DHT22;40101;53.002;6.488;2024-01-15T14:18:48;2.70;99.90
54192;DHT22;40101;53.002;6.488;2024-01-15T14:21:14;2.60;99.90
54192;DHT22;40101;53.002;6.488;2024-01-15T14:23:40;2.60;99.90
54192;DHT22;40101;53.002;6.488;2024-01-15T14:26:06;2.50;99.90
54192;DHT22;40101;53.002;6.488;2024-01-15T14:28:31;2.50;99.90
54192;DHT22;40101;53.002;6.488;2024-01-15T14:30:57;2.50;99.90
54192;DHT22;40101;53.002;6.488;2024-01-15T14:33:26;2.50;99.90
54192;DHT22;40101;53.002;6.488;2024-01-15T14:35:52;2.20;99.90
54192;DHT22;40101;53.002;6.488;2024-01-15T14:38:18;2.50;99.90
54192;DHT22;40101;53.002;6.488;2024-01-15T14:40:44;2.70;99.90
54192;DHT22;40101;53.002;6.488;2024-01-15T14:43:10;2.80;99.90
54192;DHT22;40101;53.002;6.488;2024-01-15T14:45:36;2.60;99.90
54192;DHT22;40101;53.002;6.488;2024-01-15T14:48:02;2.40;99.90
54192;DHT22;40101;53.002;6.488;2024-01-15T14:50:28;2.50;99.90
54192;DHT22;40101;53.002;6.488;2024-01-15T14:52:53;2.50;99.90
54192;DHT22;40101;53.002;6.488;2024-01-15T14:55:19;2.50;99.90
54192;DHT22;40101;53.002;6.488;2024-01-15T14:57:45;2.50;99.90
54192;DHT22;40101;53.002;6.488;2024-01-15T15:00:11;2.40;99.90
54192;DHT22;40101;53.002;6.488;2024-01-15T15:02:38;2.30;99.90
54192;DHT22;40101;53.002;6.488;2024-01-15T15:05:08;2.30;99.90
54192;DHT22;40101;53.002;6.488;2024-01-15T15:07:34;2.20;99.90
54192;DHT22;40101;53.002;6.488;2024-01-15T15:12:40;2.20;99.90
54192;DHT22;40101;53.002;6.488;2024-01-15T15:15:08;2.40;99.90
54192;DHT22;40101;53.002;6.488;2024-01-15T15:17:37;2.20;99.90
54192;DHT22;40101;53.002;6.488;2024-01-15T15:20:04;2.20;99.90
54192;DHT22;40101;53.002;6.488;2024-01-15T15:22:30;2.00;99.90
54192;DHT22;40101;53.002;6.488;2024-01-15T15:24:56;1.90;99.90
54192;DHT22;40101;53.002;6.488;2024-01-15T15:27:21;1.80;99.90
54192;DHT22;40101;53.002;6.488;2024-01-15T15:29:47;1.70;99.90
54192;DHT22;40101;53.002;6.488;2024-01-15T15:32:15;1.90;99.90
54192;DHT22;40101;53.002;6.488;2024-01-15T15:34:41;1.60;99.90
54192;DHT22;40101;53.002;6.488;2024-01-15T15:37:06;1.60;99.90
54192;DHT22;40101;53.002;6.488;2024-01-15T15:39:32;1.60;99.90
54192;DHT22;40101;53.002;6.488;2024-01-15T15:41:58;1.60;99.90
54192;DHT22;40101;53.002;6.488;2024-01-15T15:44:24;1.70;99.90
54192;DHT22;40101;53.002;6.488;2024-01-15T15:46:49;1.60;99.90
54192;DHT22;40101;53.002;6.488;2024-01-15T15:49:15;1.70;99.90
54192;DHT22;40101;53.002;6.488;2024-01-15T15:51:40;2.10;99.90
54192;DHT22;40101;53.002;6.488;2024-01-15T15:54:09;1.60;99.90
54192;DHT22;40101;53.002;6.488;2024-01-15T15:56:39;1.60;99.90
54192;DHT22;40101;53.002;6.488;2024-01-15T15:59:05;1.70;99.90
54192;DHT22;40101;53.002;6.488;2024-01-15T16:01:35;1.60;99.90
54192;DHT22;40101;53.002;6.488;2024-01-15T16:04:00;1.80;99.90